createdAt,value
2023-05-14T08:03:52.514Z,522.8595317725752
2023-05-14T08:08:55.684Z,540.0
2023-05-14T08:08:57.402Z,548.0
2023-05-14T08:08:59.212Z,511.0
2023-05-14T08:09:01.109Z,534.0
2023-05-14T08:09:02.918Z,509.0
2023-05-14T08:09:04.639Z,527.0
2023-05-14T08:09:57.265Z,629.0
2023-05-14T08:09:58.865Z,599.0
2023-05-14T08:25:21.270Z,488.5551839464883
2023-05-14T08:31:46.141Z,491.68227424749165
2023-05-14T08:38:08.276Z,491.8294314381271
2023-05-14T08:44:30.548Z,494.6454849498328
2023-05-14T08:51:48.660Z,475.32441471571906
2023-05-14T08:58:11.790Z,480.7658862876254
2023-05-14T09:04:33.609Z,470.90301003344484
2023-05-14T09:11:02.287Z,485.6588628762542
2023-05-14T09:17:25.990Z,454.73578595317724
2023-05-14T09:23:50.997Z,467.03678929765886
2023-05-14T09:32:59.009Z,462.46822742474916
2023-05-14T09:39:24.633Z,475.83277591973246
2023-05-14T09:45:47.017Z,470.09364548494983
2023-05-14T09:52:07.780Z,464.0133779264214
2023-05-14T09:58:29.453Z,453.67892976588627
2023-05-14T10:04:51.447Z,452.82608695652175
2023-05-14T10:11:42.683Z,465.61538461538464
2023-05-14T10:21:11.342Z,460.6989966555184
2023-05-14T10:33:10.751Z,484.876254180602
2023-05-14T18:20:25.642Z,537.0033444816054
2023-05-14T18:27:46.102Z,525.3946488294314
2023-05-14T18:35:20.596Z,581.7692307692307
2023-05-14T18:41:44.136Z,606.2307692307693
2023-05-14T18:48:09.945Z,580.7123745819398
2023-05-14T18:56:02.052Z,549.6688963210702
2023-05-14T19:02:29.199Z,566.7090301003344
2023-05-14T19:12:03.863Z,568.9297658862877
2023-05-14T19:18:33.215Z,567.5384615384615
2023-05-14T19:25:11.765Z,604.1571906354515
2023-05-14T19:31:38.140Z,600.4983277591973
2023-05-14T19:37:58.974Z,593.1772575250836
2023-05-14T19:44:20.871Z,588.9364548494983
2023-05-14T19:51:45.844Z,607.3277591973244
2023-05-14T19:58:08.505Z,607.0903010033445
2023-05-14T20:04:29.826Z,595.7859531772575
2023-05-14T20:12:55.312Z,621.3210702341137
2023-05-14T20:24:30.422Z,677.1571906354515
2023-05-14T20:36:31.343Z,659.1939799331103
2023-05-14T21:07:07.425Z,648.5752508361204
2023-05-14T21:13:25.930Z,626.010033444816
2023-05-14T21:19:44.149Z,621.0334448160535
2023-05-14T21:28:54.159Z,598.4448160535117
2023-05-14T21:35:39.580Z,620.0602006688963
2023-05-14T21:41:58.005Z,613.8294314381271
2023-05-14T21:50:40.867Z,626.2608695652174
2023-05-14T21:57:00.391Z,650.5250836120401
2023-05-14T22:03:19.863Z,682.4046822742475
2023-05-14T22:16:09.292Z,642.7123745819398
2023-05-14T22:27:47.364Z,675.0367892976589
2023-05-14T22:43:15.509Z,690.1538461538462
2023-05-14T22:54:22.340Z,679.0735785953177
2023-05-14T23:06:30.179Z,675.3913043478261
2023-05-14T23:15:28.222Z,693.1638795986622
2023-05-14T23:24:53.584Z,694.3411371237459
2023-05-14T23:31:12.714Z,687.5484949832776
2023-05-14T23:37:30.679Z,717.4949832775919
2023-05-14T23:48:22.356Z,721.6989966555184
2023-05-14T23:54:40.834Z,740.1839464882943
